Terminal Aerodrome Forecast
Issued by NWS

Home | Current Version | Previous Version | Text Only | Print | Product List | Glossary On
Versions: 1 2 3 4 5 6 7 8 9 10 11 12 13 14
000
FTUS42 KTBW 312021 AAA
TAFRSW
TAF AMD
KRSW 312021Z 3120/0118 17010KT 6SM -RA VCTS SCT015CB BKN030 OVC050
      TEMPO 3120/3124 VRB15G30KT 2SM TSRA BR BKN020CB
     FM010000 16006KT 6SM -RA SCT008 OVC025
     FM010400 14008KT P6SM VCSH SCT008 BKN030 OVC100
     FM011400 18013G22KT 6SM -RA FEW010 BKN025 OVC080=

USA.gov is the U.S. government's official web portal to all federal, state and local government web resources and services.